Portada
METAR-TAF:

METAR-TAF

Aeropuertos :

Caracas, Venezuela

Aeropuerto Internacional de Maiquetía Simón Bolívar

latitud: 10-36N, longitud: 066-59W, altitud: 43 m

Observación

El informe se hizo hace 57 minutos, a las 21:00 UTC
Viento 5 kt del norte
Temperatura 31°C
Humedad 55%
Presión 1007 hPa
Visibilidad 10 km o más
Nubes dispersas a una altura de 1600 ft

METAR: SVMI 232100Z 36005KT 9999 SCT016 31/21 Q1007

Hora: 17:57 (21:57 UTC)

Pronóstico

El informe se hizo hace 5 horas y 57 minutos, a las 16:00 UTC
Pronóstico válido del 23 a las 18 UTC al 24 a las 18 UTC
Viento 5 kt del noreste
Visibilidad 10 km o más
Nubes dispersas a una altura de 1600 ft
Evolucionando progresivamente
del 23 a las 18 UTC al 23 a las 22 UTC
Viento 3 kt del noreste
Visibilidad 10 km o más
Nubes dispersas a una altura de 1600 ft

TAF: SVMI 231600Z 2318/2418 05005KT 9999 SCT016 TX32/18Z TN25/09Z BECMG 2318/2322 05003KT 9999 SCT016

Observaciones y pronósticos meteorológicos de más de 4000 aeropuertos (mensajes METAR y TAF).

Los puntos amarillos y rojos representan las estaciones disponibles.

Ponga el ratón en el punto deseado para ver el nombre de la estación.

Haga clic para ver las observaciones y los pronósticos meteorológicos.

Para cambiar el mapa : haga clic en los botones verdes con una cruz de color negro para hacer un zoom, en el botón verde con un guión para alejar o en las flechas verdes para mapas adyacentes.


METAR-TAF: